Terminal Aerodrome Forecast
Issued by NWS

Current Version | Previous Version | Text Only | Print | Product List | Glossary On
Versions: 1 2 3 4 5 6 7 8 9 10 11 12 13 14 15 16 17 18 19 20 21 22 23 24 25 26 27 28 29 30 31
000
FTUS43 KLOT 212333
TAFORD
TAF
KORD 212333Z 2200/2306 05010KT P6SM FEW020 OVC180
     FM221000 06008KT P6SM BKN025 OVC060
     FM221700 07013KT P6SM OVC015
     FM222200 08010KT P6SM OVC025
     FM230300 12010KT P6SM SCT008 OVC013=

USA.gov is the U.S. government's official web portal to all federal, state and local government web resources and services.